Time;durP1;ratioP1;P1;durP2;ratioP2;P2;SDS_P1;SDS_P2;PMS_P1;PMS_P2;Temp;Humidity;BMP_temperature;BMP_pressure;BME280_temperature;BME280_humidity;BME280_pressure;Samples;Min_cycle;Max_cycle;Signal;HPM_P1;HPM_P2
2022/01/01 00:00:16;;;;;;;3.08;1.98;;;;;;;-2.34;91.71;99432.03;5053514;28;20037;-78
2022/01/01 00:02:43;;;;;;;4.28;2.00;;;;;;;-2.33;91.79;99436.34;5053632;28;20041;-77
2022/01/01 00:05:10;;;;;;;3.65;1.45;;;;;;;-2.33;92.23;99437.19;5052442;28;20186;-78
2022/01/01 00:07:39;;;;;;;2.33;1.73;;;;;;;-2.34;91.79;99434.72;5052073;28;20526;-77
2022/01/01 00:10:06;;;;;;;3.30;1.52;;;;;;;-2.36;92.73;99437.63;5053438;28;20044;-79
2022/01/01 00:12:32;;;;;;;4.80;2.10;;;;;;;-2.34;92.16;99430.16;5052074;28;20637;-76
2022/01/01 00:14:58;;;;;;;3.58;2.00;;;;;;;-2.36;92.86;99432.25;5053429;28;20052;-76
2022/01/01 00:17:23;;;;;;;2.85;1.55;;;;;;;-2.35;93.14;99435.75;5053321;28;20068;-75
2022/01/01 00:19:49;;;;;;;4.07;1.83;;;;;;;-2.37;93.24;99438.69;5083854;28;20578;-75
2022/01/01 00:22:14;;;;;;;2.75;1.60;;;;;;;-2.38;93.18;99438.91;5093299;28;20059;-76
2022/01/01 00:24:40;;;;;;;7.32;2.00;;;;;;;-2.38;93.95;99437.03;5075258;28;20043;-78
2022/01/01 00:27:06;;;;;;;2.83;1.73;;;;;;;-2.39;93.56;99440.78;5093247;28;20040;-76
2022/01/01 00:29:31;;;;;;;5.72;2.22;;;;;;;-2.37;93.44;99448.59;5092267;28;20091;-76
2022/01/01 00:31:57;;;;;;;4.40;2.90;;;;;;;-2.33;93.03;99445.22;5075372;28;20044;-76
2022/01/01 00:34:22;;;;;;;3.15;1.90;;;;;;;-2.33;93.19;99450.59;5092034;28;20093;-76
2022/01/01 00:36:48;;;;;;;2.65;1.98;;;;;;;-2.32;93.84;99446.88;5075368;28;20407;-78
2022/01/01 00:39:14;;;;;;;2.55;1.75;;;;;;;-2.31;93.20;99443.13;5093279;28;20047;-76
2022/01/01 00:41:39;;;;;;;6.10;2.15;;;;;;;-2.32;93.77;99454.94;5093255;28;20043;-76
2022/01/01 00:44:05;;;;;;;7.68;3.50;;;;;;;-2.32;93.43;99454.94;5093246;28;20134;-77
2022/01/01 00:46:31;;;;;;;5.65;2.83;;;;;;;-2.32;93.54;99456.81;5092955;28;20521;-78
2022/01/01 00:48:56;;;;;;;4.18;2.65;;;;;;;-2.33;93.70;99453.28;5093326;28;20040;-77
2022/01/01 00:51:22;;;;;;;5.60;3.20;;;;;;;-2.35;93.20;99460.75;5092774;28;20036;-77
2022/01/01 00:53:49;;;;;;;4.60;2.33;;;;;;;-2.36;93.16;99456.44;5092060;28;20131;-76
2022/01/01 00:56:15;;;;;;;3.03;1.70;;;;;;;-2.38;93.54;99463.91;5093008;28;20040;-75
2022/01/01 00:58:41;;;;;;;1.55;1.17;;;;;;;-2.39;93.17;99470.31;5074875;28;20050;-75
2022/01/01 01:01:07;;;;;;;3.42;1.65;;;;;;;-2.40;92.70;99468.69;5074865;28;20042;-75
2022/01/01 01:03:33;;;;;;;3.45;2.00;;;;;;;-2.40;93.08;99465.19;5074622;28;20032;-76
2022/01/01 01:05:59;;;;;;;2.53;1.48;;;;;;;-2.44;92.71;99476.34;5093012;28;20040;-76
2022/01/01 01:08:26;;;;;;;1.95;1.77;;;;;;;-2.45;93.12;99477.41;5092917;28;20066;-76
2022/01/01 01:10:52;;;;;;;2.15;1.40;;;;;;;-2.45;92.57;99480.09;5091496;28;20131;-76
2022/01/01 01:13:20;;;;;;;2.55;1.40;;;;;;;-2.48;92.52;99464.44;5092423;28;20119;-75
2022/01/01 01:15:46;;;;;;;4.10;1.67;;;;;;;-2.51;92.53;99470.25;5091319;28;20502;-77
2022/01/01 01:18:12;;;;;;;1.23;1.02;;;;;;;-2.54;91.22;99477.94;5092218;28;20044;-77
2022/01/01 01:20:38;;;;;;;0.80;0.80;;;;;;;-2.55;91.42;99484.38;5092750;28;20043;-75
2022/01/01 01:23:04;;;;;;;2.45;1.00;;;;;;;-2.55;90.93;99487.03;5091193;28;20039;-78
2022/01/01 01:25:32;;;;;;;1.02;0.90;;;;;;;-2.56;91.16;99494.28;5074339;28;20055;-75
2022/01/01 01:28:06;;;;;;;3.00;1.23;;;;;;;-2.57;90.99;99507.94;5092551;28;20070;-76
2022/01/01 01:30:32;;;;;;;1.30;1.05;;;;;;;-2.59;91.04;99505.47;5092346;28;20048;-76
2022/01/01 01:32:57;;;;;;;1.48;1.00;;;;;;;-2.59;90.81;99513.53;5092230;28;20043;-77
2022/01/01 01:35:23;;;;;;;0.70;0.70;;;;;;;-2.61;91.31;99506.72;5090778;28;20036;-77
2022/01/01 01:37:48;;;;;;;0.85;0.80;;;;;;;-2.63;91.61;99514.19;5092230;28;20052;-77
2022/01/01 01:40:14;;;;;;;1.30;1.00;;;;;;;-2.65;91.46;99508.22;5092292;28;20035;-77
2022/01/01 01:42:42;;;;;;;0.77;0.70;;;;;;;-2.68;91.07;99508.66;5091931;28;20498;-77
2022/01/01 01:45:12;;;;;;;2.27;0.90;;;;;;;-2.71;90.73;99519.84;5090726;28;20047;-76
2022/01/01 01:47:38;;;;;;;1.05;0.95;;;;;;;-2.74;90.60;99513.91;5073487;28;20450;-77
2022/01/01 01:50:06;;;;;;;2.10;1.00;;;;;;;-2.77;90.59;99518.91;5092322;28;20078;-77
2022/01/01 01:52:35;;;;;;;1.17;0.38;;;;;;;-2.79;90.91;99515.56;5073940;28;20036;-75
2022/01/01 01:55:03;;;;;;;1.08;0.80;;;;;;;-2.82;90.44;99514.16;5090732;28;20486;-75
2022/01/01 01:57:29;;;;;;;0.57;0.57;;;;;;;-2.84;90.30;99518.94;5073485;28;20472;-76
2022/01/01 01:59:55;;;;;;;4.18;1.92;;;;;;;-2.84;90.06;99512.75;5091680;28;20071;-77
2022/01/01 02:02:21;;;;;;;1.83;0.75;;;;;;;-2.86;89.87;99521.03;5073365;28;20062;-75
2022/01/01 02:04:46;;;;;;;1.02;0.60;;;;;;;-2.85;90.06;99519.97;5091599;28;20043;-76
2022/01/01 02:07:12;;;;;;;0.60;0.60;;;;;;;-2.87;89.55;99518.56;5091653;28;20055;-77
2022/01/01 02:09:39;;;;;;;1.00;0.80;;;;;;;-2.90;89.31;99517.16;5073471;28;20039;-76
2022/01/01 02:12:06;;;;;;;1.02;0.93;;;;;;;-2.89;89.59;99523.34;5056675;28;20040;-76
2022/01/01 02:17:16;;;;;;;0.60;0.60;;;;;;;-2.92;89.63;99529.16;5091728;28;20047;-75
2022/01/01 02:19:54;;;;;;;1.30;0.80;;;;;;;-2.94;89.94;99531.25;5091060;28;20056;-76
2022/01/01 02:22:20;;;;;;;1.23;0.97;;;;;;;-2.94;89.79;99529.38;5056546;28;20638;-77
2022/01/01 02:24:46;;;;;;;1.70;0.73;;;;;;;-2.96;89.49;99531.44;5091347;28;20040;-77
2022/01/01 02:27:11;;;;;;;0.75;0.70;;;;;;;-2.97;89.56;99535.16;5073359;28;20093;-77
2022/01/01 02:29:38;;;;;;;0.82;0.60;;;;;;;-2.99;89.26;99539.94;5090872;28;20044;-77
2022/01/01 02:32:07;;;;;;;0.93;0.75;;;;;;;-3.00;89.83;99550.88;5090105;28;20186;-77
2022/01/01 02:34:33;;;;;;;0.85;0.68;;;;;;;-3.03;89.16;99552.16;5091182;28;20032;-77
2022/01/01 02:36:59;;;;;;;1.08;0.70;;;;;;;-3.05;89.32;99565.78;5091210;28;20032;-77
2022/01/01 02:39:24;;;;;;;1.23;1.13;;;;;;;-3.07;89.06;99562.50;5073268;28;20129;-77
2022/01/01 02:41:52;;;;;;;2.00;0.93;;;;;;;-3.06;89.55;99563.31;5091471;28;20032;-77
2022/01/01 02:44:20;;;;;;;1.88;1.05;;;;;;;-3.07;89.03;99559.00;5091103;28;20121;-77
2022/01/01 02:46:46;;;;;;;1.93;0.83;;;;;;;-3.09;88.71;99561.09;5090046;28;20140;-77
2022/01/01 02:49:11;;;;;;;1.02;0.93;;;;;;;-3.13;88.37;99562.53;5091096;28;20082;-77
2022/01/01 02:51:37;;;;;;;2.08;0.88;;;;;;;-3.14;89.23;99571.63;5073114;28;20058;-77
2022/01/01 02:54:02;;;;;;;1.10;0.90;;;;;;;-3.15;88.63;99570.81;5091019;28;20047;-77
2022/01/01 02:56:28;;;;;;;1.55;1.02;;;;;;;-3.14;88.99;99571.63;5072697;28;20032;-77
2022/01/01 02:58:53;;;;;;;1.55;1.10;;;;;;;-3.14;88.91;99568.94;5091074;28;20499;-77
2022/01/01 03:01:19;;;;;;;1.80;1.13;;;;;;;-3.16;88.17;99565.66;5089625;28;20044;-77
2022/01/01 03:03:46;;;;;;;1.27;0.98;;;;;;;-3.17;88.05;99570.22;5072829;28;20040;-77
2022/01/01 03:06:19;;;;;;;1.98;1.00;;;;;;;-3.19;87.92;99572.28;5091187;28;20040;-76
2022/01/01 03:08:46;;;;;;;1.77;1.10;;;;;;;-3.21;87.89;99576.25;5090939;28;20043;-76
2022/01/01 03:11:11;;;;;;;2.72;1.58;;;;;;;-3.20;88.33;99580.56;5090960;28;20096;-76
2022/01/01 03:13:37;;;;;;;1.85;0.95;;;;;;;-3.20;88.77;99589.44;5089791;28;20040;-77
2022/01/01 03:16:03;;;;;;;0.57;0.45;;;;;;;-3.24;88.49;99582.88;5091117;28;20048;-77
2022/01/01 03:18:29;;;;;;;2.53;1.10;;;;;;;-3.26;88.41;99578.75;5072578;28;20075;-77
2022/01/01 03:20:54;;;;;;;2.33;1.33;;;;;;;-3.26;88.22;99578.75;5089675;28;20070;-76
2022/01/01 03:23:20;;;;;;;1.95;1.25;;;;;;;-3.25;87.68;99580.41;5090833;28;20067;-77
2022/01/01 03:25:45;;;;;;;1.30;1.00;;;;;;;-3.27;88.00;99594.03;5089361;28;20134;-77
2022/01/01 03:28:11;;;;;;;1.83;1.38;;;;;;;-3.27;88.05;99593.22;5089471;28;20039;-77
2022/01/01 03:30:37;;;;;;;1.98;1.20;;;;;;;-3.26;87.98;99589.50;5090471;28;20486;-77
2022/01/01 03:33:02;;;;;;;2.33;1.10;;;;;;;-3.25;88.42;99599.19;5090457;28;20542;-76
2022/01/01 03:35:28;;;;;;;3.22;1.60;;;;;;;-3.26;88.20;99600.22;5090642;28;20051;-76
2022/01/01 03:37:54;;;;;;;3.22;1.50;;;;;;;-3.28;88.36;99588.88;5090511;28;20032;-76
2022/01/01 03:40:19;;;;;;;1.42;1.10;;;;;;;-3.28;89.17;99588.88;5092327;28;20110;-76
2022/01/01 03:42:45;;;;;;;1.70;1.02;;;;;;;-3.29;88.50;99597.97;5076334;28;20055;-76
2022/01/01 03:45:10;;;;;;;2.15;1.10;;;;;;;-3.30;88.94;99599.81;5093017;28;20052;-76
2022/01/01 03:47:36;;;;;;;2.03;1.30;;;;;;;-3.29;88.63;99606.84;5092976;28;20051;-76
2022/01/01 03:50:02;;;;;;;1.20;0.80;;;;;;;-3.30;88.37;99599.00;5094309;28;20061;-76
2022/01/01 03:52:28;;;;;;;2.05;1.30;;;;;;;-3.31;88.92;99602.72;5094077;28;20032;-76
2022/01/01 03:54:53;;;;;;;1.30;1.00;;;;;;;-3.31;89.04;99594.66;5076177;28;20036;-76
2022/01/01 03:57:21;;;;;;;1.58;0.98;;;;;;;-3.31;88.71;99602.72;5076166;28;20126;-76
2022/01/01 03:59:47;;;;;;;1.13;1.02;;;;;;;-3.32;88.71;99601.88;5092773;28;20128;-76
2022/01/01 04:02:14;;;;;;;0.95;0.93;;;;;;;-3.31;88.89;99606.22;5094334;28;20032;-76
2022/01/01 04:04:39;;;;;;;1.40;0.98;;;;;;;-3.31;88.71;99606.22;5093759;28;20040;-76
2022/01/01 04:07:05;;;;;;;1.08;0.90;;;;;;;-3.31;89.24;99608.06;5059309;28;20043;-76
2022/01/01 04:09:31;;;;;;;2.22;1.27;;;;;;;-3.31;89.52;99619.63;5093825;28;20032;-77
2022/01/01 04:11:56;;;;;;;1.20;0.90;;;;;;;-3.34;89.59;99615.53;5094258;28;20043;-77
2022/01/01 04:14:22;;;;;;;2.72;1.20;;;;;;;-3.34;89.28;99617.38;5094067;28;20036;-77
2022/01/01 04:16:50;;;;;;;2.55;0.77;;;;;;;-3.35;88.86;99621.94;5093628;28;20047;-77
2022/01/01 04:19:15;;;;;;;2.05;0.85;;;;;;;-3.36;89.28;99619.47;5075603;28;20074;-77
2022/01/01 04:21:41;;;;;;;1.60;1.02;;;;;;;-3.36;89.25;99616.78;5075504;28;20409;-77
2022/01/01 04:24:07;;;;;;;1.67;0.95;;;;;;;-3.34;89.45;99617.38;5092703;28;20044;-77
2022/01/01 04:26:33;;;;;;;2.45;1.42;;;;;;;-3.33;89.50;99614.47;5093484;28;20093;-77
2022/01/01 04:28:59;;;;;;;2.13;1.30;;;;;;;-3.32;89.43;99617.97;5093713;28;20038;-77
2022/01/01 04:31:25;;;;;;;2.22;1.00;;;;;;;-3.30;89.07;99623.13;5093394;28;20039;-77
2022/01/01 04:33:50;;;;;;;4.93;1.20;;;;;;;-3.31;89.96;99627.66;5093401;28;20039;-77
2022/01/01 04:36:16;;;;;;;1.52;0.98;;;;;;;-3.31;89.51;99629.53;5092208;28;20406;-76
2022/01/01 04:38:44;;;;;;;1.98;1.30;;;;;;;-3.30;89.79;99641.91;5075118;28;20092;-77
2022/01/01 04:41:12;;;;;;;1.33;0.93;;;;;;;-3.29;89.73;99644.41;5093529;28;20078;-77
2022/01/01 04:43:39;;;;;;;2.90;1.20;;;;;;;-3.30;89.37;99641.91;5092970;28;20032;-77
2022/01/01 04:46:04;;;;;;;3.72;1.30;;;;;;;-3.32;90.01;99652.84;5075146;28;20498;-76
2022/01/01 04:48:30;;;;;;;1.63;1.17;;;;;;;-3.34;89.56;99650.38;5093325;28;20043;-76
2022/01/01 04:50:56;;;;;;;1.58;1.02;;;;;;;-3.36;89.29;99660.50;5074740;28;20040;-76
2022/01/01 04:53:21;;;;;;;3.50;1.10;;;;;;;-3.37;89.35;99658.88;5091450;28;20294;-77
2022/01/01 04:55:48;;;;;;;2.08;0.95;;;;;;;-3.38;89.28;99659.09;5093040;28;20414;-77
2022/01/01 04:58:15;;;;;;;1.20;1.10;;;;;;;-3.40;89.57;99667.34;5074855;28;20032;-77
2022/01/01 05:00:40;;;;;;;2.33;0.95;;;;;;;-3.40;89.33;99663.84;5091662;28;20104;-77
2022/01/01 05:03:06;;;;;;;1.02;1.00;;;;;;;-3.39;89.51;99665.50;5092934;28;20452;-77
2022/01/01 05:05:31;;;;;;;1.27;1.00;;;;;;;-3.41;88.98;99670.25;5091300;28;20039;-76
2022/01/01 05:07:57;;;;;;;1.73;1.20;;;;;;;-3.41;89.36;99670.25;5091615;28;20032;-77
2022/01/01 05:10:24;;;;;;;1.45;1.15;;;;;;;-3.42;89.10;99672.09;5091572;28;20096;-77
2022/01/01 05:12:51;;;;;;;1.63;1.25;;;;;;;-3.44;89.68;99676.88;5074463;28;20047;-77
2022/01/01 05:15:16;;;;;;;1.92;0.90;;;;;;;-3.49;88.54;99676.66;5092698;28;20143;-76
2022/01/01 05:17:42;;;;;;;1.90;1.20;;;;;;;-3.51;88.36;99676.06;5092474;28;20122;-76
2022/01/01 05:20:09;;;;;;;0.82;0.70;;;;;;;-3.52;88.24;99684.31;5091204;28;20048;-77
2022/01/01 05:22:34;;;;;;;1.83;0.80;;;;;;;-3.54;87.83;99689.91;5057543;28;20097;-77
2022/01/01 05:25:01;;;;;;;1.30;0.95;;;;;;;-3.53;87.88;99691.53;5092428;28;20048;-77
2022/01/01 05:27:27;;;;;;;2.60;1.10;;;;;;;-3.52;88.19;99692.38;5090975;28;20092;-77
2022/01/01 05:29:53;;;;;;;1.05;0.90;;;;;;;-3.52;87.51;99703.09;5092004;28;20032;-76
2022/01/01 05:32:18;;;;;;;1.00;0.80;;;;;;;-3.51;87.44;99697.50;5092098;28;20043;-75
2022/01/01 05:34:44;;;;;;;1.13;0.90;;;;;;;-3.53;87.91;99696.09;5091984;28;20032;-75
2022/01/01 05:37:09;;;;;;;1.55;0.90;;;;;;;-3.54;88.19;99697.94;5092085;28;20536;-77
2022/01/01 05:39:35;;;;;;;1.92;0.88;;;;;;;-3.52;88.01;99701.22;5092238;28;20048;-75
2022/01/01 05:42:01;;;;;;;1.00;0.45;;;;;;;-3.53;86.94;99702.25;5092008;28;20409;-76
2022/01/01 05:44:26;;;;;;;4.03;1.10;;;;;;;-3.55;87.28;99701.66;5091932;28;20043;-76
2022/01/01 05:46:53;;;;;;;1.48;0.60;;;;;;;-3.55;87.94;99709.69;5091905;28;20127;-75
2022/01/01 05:49:19;;;;;;;2.03;1.40;;;;;;;-3.54;87.60;99711.34;5091797;28;20043;-76
2022/01/01 05:51:45;;;;;;;1.98;1.02;;;;;;;-3.55;87.35;99720.44;5090525;28;20040;-77
2022/01/01 05:54:11;;;;;;;1.88;1.13;;;;;;;-3.55;88.01;99724.97;5092132;28;20050;-77
2022/01/01 05:56:36;;;;;;;2.25;1.40;;;;;;;-3.54;87.26;99735.47;5073725;28;20131;-77
2022/01/01 05:59:02;;;;;;;1.75;1.13;;;;;;;-3.53;87.13;99733.63;5073694;28;20414;-76
2022/01/01 06:01:27;;;;;;;1.15;0.93;;;;;;;-3.55;87.90;99738.38;5091683;28;20055;-76
2022/01/01 06:03:53;;;;;;;1.30;0.90;;;;;;;-3.59;87.69;99746.03;5073402;28;20043;-77
2022/01/01 06:06:19;;;;;;;0.98;0.85;;;;;;;-3.61;87.88;99758.00;5091999;28;20042;-76
2022/01/01 06:08:45;;;;;;;1.98;1.10;;;;;;;-3.63;87.87;99758.22;5091612;28;20036;-77
2022/01/01 06:11:10;;;;;;;0.28;0.28;;;;;;;-3.65;87.50;99760.25;5073394;28;20127;-77
2022/01/01 06:13:36;;;;;;;2.22;0.63;;;;;;;-3.67;87.19;99755.09;5090118;28;20036;-77
2022/01/01 06:16:01;;;;;;;2.17;0.70;;;;;;;-3.69;87.20;99762.53;5090551;28;20048;-77
2022/01/01 06:18:27;;;;;;;0.93;0.70;;;;;;;-3.71;86.32;99763.78;5073416;28;20052;-77
2022/01/01 06:20:52;;;;;;;1.08;0.60;;;;;;;-3.72;85.55;99772.88;5091354;28;20073;-77
2022/01/01 06:23:18;;;;;;;0.82;0.80;;;;;;;-3.73;86.62;99765.84;5091671;28;20044;-77
2022/01/01 06:25:43;;;;;;;1.48;0.85;;;;;;;-3.73;86.47;99773.91;5090051;28;20043;-77
2022/01/01 06:28:09;;;;;;;1.10;0.77;;;;;;;-3.71;85.79;99780.69;5091312;28;20044;-76
2022/01/01 06:30:35;;;;;;;1.67;1.25;;;;;;;-3.69;85.50;99772.44;5091336;28;20126;-76
2022/01/01 06:33:13;;;;;;;1.20;0.60;;;;;;;-3.69;86.10;99785.84;5073261;28;20036;-76
2022/01/01 06:35:40;;;;;;;2.38;1.27;;;;;;;-3.67;86.21;99789.13;5091382;28;20169;-76
2022/01/01 06:38:06;;;;;;;2.03;1.13;;;;;;;-3.67;85.96;99789.13;5090338;28;20052;-76
2022/01/01 06:40:32;;;;;;;2.00;1.60;;;;;;;-3.66;86.65;99794.28;5091522;28;20043;-76
2022/01/01 06:42:57;;;;;;;3.35;1.48;;;;;;;-3.66;86.21;99791.59;5091265;28;20032;-76
2022/01/01 06:45:24;;;;;;;2.10;1.45;;;;;;;-3.67;87.00;99800.69;5091098;28;20040;-76
2022/01/01 06:47:49;;;;;;;2.15;1.40;;;;;;;-3.66;86.36;99799.66;5090949;28;20043;-76
2022/01/01 06:50:15;;;;;;;2.22;1.60;;;;;;;-3.64;86.63;99807.50;5091082;28;20093;-76
2022/01/01 06:52:44;;;;;;;2.58;1.20;;;;;;;-3.63;86.36;99817.19;5091012;28;20498;-76
2022/01/01 06:55:11;;;;;;;0.98;0.98;;;;;;;-3.62;86.90;99818.03;5089861;28;20046;-77
2022/01/01 06:57:37;;;;;;;2.42;1.67;;;;;;;-3.62;86.93;99818.84;5073407;28;20052;-76
2022/01/01 07:00:04;;;;;;;2.17;1.02;;;;;;;-3.61;87.43;99819.66;5089651;28;20068;-76
2022/01/01 07:02:29;;;;;;;2.00;1.20;;;;;;;-3.61;87.40;99817.81;5073202;28;20716;-77
2022/01/01 07:04:55;;;;;;;2.65;1.35;;;;;;;-3.62;87.80;99826.06;5072921;28;20036;-76
2022/01/01 07:07:21;;;;;;;2.88;1.25;;;;;;;-3.62;87.33;99820.69;5091052;28;20043;-76
2022/01/01 07:09:46;;;;;;;1.33;1.05;;;;;;;-3.63;87.17;99827.91;5090830;28;20391;-76
2022/01/01 07:12:12;;;;;;;1.77;1.38;;;;;;;-3.63;87.78;99840.50;5090921;28;20036;-77
2022/01/01 07:14:37;;;;;;;2.08;1.30;;;;;;;-3.66;87.54;99842.53;5091776;28;20073;-77
2022/01/01 07:17:03;;;;;;;3.15;1.50;;;;;;;-3.66;87.89;99853.25;5095006;28;20119;-76
2022/01/01 07:19:28;;;;;;;2.53;1.60;;;;;;;-3.66;88.00;99847.91;5076678;28;20048;-75
2022/01/01 07:21:59;;;;;;;1.50;1.20;;;;;;;-3.68;88.40;99847.28;5093530;28;20036;-76
2022/01/01 07:24:26;;;;;;;2.55;1.23;;;;;;;-3.69;88.28;99856.38;5094673;28;20051;-77
2022/01/01 07:26:51;;;;;;;1.90;1.70;;;;;;;-3.71;87.64;99863.78;5076574;28;20032;-77
2022/01/01 07:29:17;;;;;;;3.00;1.17;;;;;;;-3.75;87.58;99859.88;5094757;28;20178;-76
2022/01/01 07:31:42;;;;;;;1.98;1.20;;;;;;;-3.75;87.78;99864.44;5094783;28;20040;-76
2022/01/01 07:34:08;;;;;;;1.80;1.30;;;;;;;-3.77;88.24;99874.53;5093389;28;20040;-78
2022/01/01 07:36:33;;;;;;;1.17;0.90;;;;;;;-3.79;87.74;99874.75;5094920;28;20042;-76
2022/01/01 07:38:59;;;;;;;2.05;1.13;;;;;;;-3.82;87.08;99874.31;5093166;28;20036;-76
2022/01/01 07:41:24;;;;;;;2.45;1.48;;;;;;;-3.81;86.75;99879.50;5076381;28;20043;-76
2022/01/01 07:43:50;;;;;;;2.05;1.20;;;;;;;-3.81;87.33;99886.72;5093046;28;20044;-75
2022/01/01 07:46:16;;;;;;;3.25;1.13;;;;;;;-3.79;87.05;99890.00;5094203;28;20441;-76
2022/01/01 07:48:41;;;;;;;2.67;1.40;;;;;;;-3.81;86.50;99892.06;5094340;28;20040;-77
2022/01/01 07:51:07;;;;;;;1.48;1.20;;;;;;;-3.82;86.50;99891.22;5094171;28;20043;-76
2022/01/01 07:53:32;;;;;;;1.02;0.80;;;;;;;-3.82;86.84;99903.78;5094209;28;20081;-75
2022/01/01 07:55:58;;;;;;;3.42;1.80;;;;;;;-3.82;86.54;99901.09;5094326;28;20032;-76
2022/01/01 07:58:23;;;;;;;2.13;1.65;;;;;;;-3.82;87.04;99909.16;5094035;28;20524;-78
2022/01/01 08:00:49;;;;;;;2.25;1.98;;;;;;;-3.81;86.34;99908.16;5075841;28;20043;-77
2022/01/01 08:03:14;;;;;;;1.10;0.82;;;;;;;-3.83;85.94;99899.47;5092838;28;20085;-77
2022/01/01 08:05:41;;;;;;;2.20;1.15;;;;;;;-3.86;85.69;99899.88;5092805;28;20082;-77
2022/01/01 08:08:06;;;;;;;0.95;0.88;;;;;;;-3.87;85.10;99908.94;5093857;28;20047;-77
2022/01/01 08:10:34;;;;;;;1.80;1.25;;;;;;;-3.87;84.69;99911.63;5091096;28;20040;-77
2022/01/01 08:13:00;;;;;;;1.70;1.20;;;;;;;-3.89;84.94;99917.19;5089567;28;20046;-77
2022/01/01 08:15:26;;;;;;;1.98;1.52;;;;;;;-3.91;84.63;99924.63;5092482;28;20123;-77
2022/01/01 08:17:51;;;;;;;3.15;1.52;;;;;;;-3.96;84.39;99919.88;5093805;28;20043;-77
2022/01/01 08:20:17;;;;;;;3.80;1.63;;;;;;;-3.96;84.08;99929.78;5075395;28;20141;-77
2022/01/01 08:22:43;;;;;;;5.13;2.00;;;;;;;-3.97;84.86;99918.22;5093854;28;20040;-76
2022/01/01 08:25:09;;;;;;;2.72;1.83;;;;;;;-4.00;84.09;99932.00;5092584;28;20044;-76
2022/01/01 08:27:34;;;;;;;1.50;1.40;;;;;;;-4.00;83.43;99932.00;5092402;28;20494;-76
2022/01/01 08:30:00;;;;;;;1.65;1.35;;;;;;;-3.99;84.54;99928.34;5093716;28;20043;-75
2022/01/01 08:32:26;;;;;;;3.25;1.70;;;;;;;-3.97;84.38;99934.31;5092337;28;20038;-75
2022/01/01 08:34:52;;;;;;;1.77;1.60;;;;;;;-3.99;84.45;99928.34;5092355;28;20040;-76
2022/01/01 08:37:18;;;;;;;1.60;1.50;;;;;;;-4.00;84.54;99932.00;5075379;28;20566;-76
2022/01/01 08:39:43;;;;;;;2.05;1.20;;;;;;;-3.99;85.04;99948.94;5075528;28;20143;-75
2022/01/01 08:42:10;;;;;;;2.08;1.30;;;;;;;-4.00;84.77;99936.56;5093456;28;20047;-75
2022/01/01 08:44:35;;;;;;;1.73;1.50;;;;;;;-4.03;84.70;99951.19;5093516;28;20083;-75
2022/01/01 08:47:01;;;;;;;1.90;1.50;;;;;;;-4.03;84.62;99945.81;5075289;28;20067;-75
2022/01/01 08:49:26;;;;;;;1.42;1.30;;;;;;;-4.00;85.30;99958.00;5093120;28;20076;-76
2022/01/01 08:51:55;;;;;;;2.95;1.55;;;;;;;-3.99;85.65;99957.81;5075341;28;20054;-76
2022/01/01 08:54:21;;;;;;;3.88;2.05;;;;;;;-3.98;85.71;99954.09;5093089;28;20044;-77
2022/01/01 08:56:46;;;;;;;2.13;0.82;;;;;;;-3.99;85.76;99965.84;5092922;28;20097;-77
2022/01/01 08:59:12;;;;;;;2.20;1.55;;;;;;;-3.99;85.52;99957.81;5092939;28;20031;-77
2022/01/01 09:01:38;;;;;;;1.30;1.02;;;;;;;-4.03;85.10;99972.63;5092967;28;20044;-77
2022/01/01 09:04:04;;;;;;;3.03;1.30;;;;;;;-4.09;85.87;99970.75;5091479;28;20046;-77
2022/01/01 09:06:29;;;;;;;1.88;1.17;;;;;;;-4.10;85.46;99971.78;5074729;28;20036;-77
2022/01/01 09:08:55;;;;;;;2.67;1.80;;;;;;;-4.13;84.68;99974.06;5092551;28;20047;-75
2022/01/01 09:11:22;;;;;;;2.20;1.50;;;;;;;-4.15;85.35;99974.25;5093057;28;20120;-76
2022/01/01 09:13:47;;;;;;;2.67;1.92;;;;;;;-4.17;85.29;99989.69;5074323;28;20284;-76
2022/01/01 09:16:16;;;;;;;2.75;2.15;;;;;;;-4.22;85.43;99994.00;5092914;28;20386;-76
2022/01/01 09:18:43;;;;;;;1.45;1.35;;;;;;;-4.28;84.83;99992.97;5074582;28;20056;-76
2022/01/01 09:21:09;;;;;;;1.48;1.25;;;;;;;-4.33;85.03;100001.59;5092540;28;20101;-77
2022/01/01 09:23:35;;;;;;;3.25;2.17;;;;;;;-4.34;84.92;100005.31;5074724;28;20048;-77
2022/01/01 09:26:01;;;;;;;2.70;1.42;;;;;;;-4.37;85.37;99999.50;5092228;28;20510;-78
2022/01/01 09:28:28;;;;;;;2.63;1.60;;;;;;;-4.42;85.22;100015.34;5091440;28;20040;-77
2022/01/01 09:30:55;;;;;;;1.58;1.30;;;;;;;-4.49;84.02;100012.66;5092114;28;20032;-78
2022/01/01 09:33:20;;;;;;;2.00;1.38;;;;;;;-4.49;84.61;100020.69;5092288;28;20044;-78
2022/01/01 09:35:46;;;;;;;2.65;1.73;;;;;;;-4.46;84.65;100027.50;5074238;28;20036;-77
2022/01/01 09:38:11;;;;;;;1.45;1.17;;;;;;;-4.50;84.48;100032.44;5073920;28;20039;-76
2022/01/01 09:40:37;;;;;;;1.60;1.25;;;;;;;-4.51;85.07;100033.44;5092242;28;20051;-78
2022/01/01 09:43:03;;;;;;;1.30;1.20;;;;;;;-4.55;84.36;100027.63;5092023;28;20036;-76
2022/01/01 09:45:29;;;;;;;2.65;1.50;;;;;;;-4.58;83.73;100033.41;5074029;28;20563;-76
2022/01/01 09:47:55;;;;;;;1.23;1.00;;;;;;;-4.66;83.50;100048.81;5073820;28;20047;-76
2022/01/01 09:50:20;;;;;;;3.20;1.63;;;;;;;-4.71;83.86;100044.03;5090756;28;20039;-76
2022/01/01 09:52:46;;;;;;;1.60;1.35;;;;;;;-4.75;83.86;100044.63;5091855;28;20108;-76
2022/01/01 09:55:11;;;;;;;2.63;1.48;;;;;;;-4.81;83.48;100054.28;5090384;28;20133;-76
2022/01/01 09:57:37;;;;;;;2.80;1.45;;;;;;;-4.84;83.71;100057.34;5090683;28;20124;-76
2022/01/01 10:00:04;;;;;;;2.63;1.48;;;;;;;-4.88;83.76;100051.53;5073939;28;20036;-76
2022/01/01 10:02:31;;;;;;;1.83;1.40;;;;;;;-4.91;84.27;100061.81;5073539;28;20462;-76
2022/01/01 10:05:03;;;;;;;2.95;1.73;;;;;;;-4.91;83.99;100067.16;5091524;28;20047;-76
2022/01/01 10:07:29;;;;;;;3.60;1.83;;;;;;;-4.95;83.79;100066.72;5073683;28;20040;-76
2022/01/01 10:09:55;;;;;;;3.05;1.58;;;;;;;-4.93;84.00;100066.53;5090311;28;20036;-77
2022/01/01 10:12:37;;;;;;;4.00;1.67;;;;;;;-4.94;84.03;100068.38;5056920;28;20063;-76
2022/01/01 10:15:06;;;;;;;2.28;1.60;;;;;;;-4.97;84.45;100057.25;5091521;28;20036;-75
2022/01/01 10:17:31;;;;;;;2.85;1.90;;;;;;;-5.04;83.78;100056.34;5091415;28;20032;-77
2022/01/01 10:19:57;;;;;;;2.75;1.48;;;;;;;-5.11;83.67;100052.81;5073157;28;20048;-77
2022/01/01 10:22:23;;;;;;;1.73;1.13;;;;;;;-5.18;83.90;100056.25;5073630;28;20042;-76
2022/01/01 10:27:53;;;;;;;;;;;;;;;-5.28;84.57;100058.44;5073840;28;20040;-78
2022/01/01 10:30:39;;;;;;;2.40;1.50;;;;;;;-5.32;84.59;100067.03;5091653;28;20010;-77
2022/01/01 10:33:09;;;;;;;1.73;1.45;;;;;;;-5.36;84.57;100071.94;5073433;28;20036;-76
2022/01/01 10:35:38;;;;;;;2.67;1.60;;;;;;;-5.41;84.18;100057.47;5091376;28;20036;-76
2022/01/01 10:38:05;;;;;;;2.45;1.58;;;;;;;-5.48;84.78;100060.94;5088443;28;20528;-76
2022/01/01 10:40:31;;;;;;;3.10;1.27;;;;;;;-5.51;84.37;100065.84;5087598;28;20079;-77
2022/01/01 10:42:57;;;;;;;2.97;1.80;;;;;;;-5.56;84.14;100058.38;5090458;28;20060;-77
2022/01/01 10:45:34;;;;;;;4.28;1.85;;;;;;;-5.60;84.29;100073.13;5089997;28;20036;-77
2022/01/01 10:48:27;;;;;;;2.45;1.25;;;;;;;-5.63;84.05;100075.38;5091157;28;20063;-78
2022/01/01 10:50:54;;;;;;;1.50;1.10;;;;;;;-5.72;84.07;100079.19;5090572;28;20036;-77
2022/01/01 10:53:22;;;;;;;2.42;1.65;;;;;;;-5.76;84.01;100081.38;5089894;28;20040;-77
2022/01/01 10:55:50;;;;;;;1.88;1.23;;;;;;;-5.78;84.48;100086.09;5090026;28;20151;-77
2022/01/01 10:58:18;;;;;;;2.35;1.35;;;;;;;-5.85;84.26;100087.88;5090861;28;20249;-77
2022/01/01 11:00:44;;;;;;;1.63;1.10;;;;;;;-5.88;84.18;100091.75;5089831;28;20422;-77
2022/01/01 11:03:15;;;;;;;2.80;1.30;;;;;;;-5.90;83.72;100088.50;5089942;28;20043;-77
2022/01/01 11:05:41;;;;;;;2.13;1.67;;;;;;;-5.92;84.47;100081.66;5090944;28;20048;-77
2022/01/01 11:08:08;;;;;;;1.55;1.45;;;;;;;-5.94;84.03;100084.50;5091013;28;20044;-77
2022/01/01 11:10:35;;;;;;;1.75;1.42;;;;;;;-5.96;84.55;100096.41;5089494;28;20387;-77
2022/01/01 11:13:02;;;;;;;3.13;1.65;;;;;;;-5.97;84.45;100097.41;5089453;28;20531;-77
2022/01/01 11:15:28;;;;;;;1.77;1.40;;;;;;;-5.97;84.88;100108.09;5090844;28;20386;-77
2022/01/01 11:17:56;;;;;;;3.33;1.40;;;;;;;-5.99;84.67;100102.94;5089839;28;20044;-77
2022/01/01 11:20:23;;;;;;;4.18;1.40;;;;;;;-6.01;83.89;100106.81;5090811;28;20078;-77
2022/01/01 11:22:49;;;;;;;2.97;1.67;;;;;;;-6.03;84.83;100100.84;5072826;28;20039;-77
2022/01/01 11:25:16;;;;;;;2.78;1.50;;;;;;;-6.05;84.84;100117.06;5072617;28;20519;-78
2022/01/01 11:27:43;;;;;;;2.92;1.48;;;;;;;-6.08;84.39;100107.56;5090812;28;20036;-77
2022/01/01 11:30:11;;;;;;;2.63;1.65;;;;;;;-6.07;84.39;100108.41;5090629;28;20502;-76
2022/01/01 11:32:40;;;;;;;1.85;1.58;;;;;;;-6.07;83.89;100108.41;5072630;28;20545;-77